createdAt,value
2018-12-27T00:01:49.690Z,0.60
2018-12-27T00:04:18.781Z,0.60
2018-12-27T00:06:48.002Z,0.60
2018-12-27T00:09:16.930Z,0.60
2018-12-27T00:11:45.768Z,0.40
2018-12-27T00:14:14.685Z,0.20
2018-12-27T00:16:43.798Z,0.20
2018-12-27T00:19:12.637Z,0.20
2018-12-27T00:21:41.548Z,0.20
2018-12-27T00:24:10.481Z,0.20
2018-12-27T00:26:39.622Z,0.00
2018-12-27T00:29:08.537Z,-0.10
2018-12-27T00:31:37.572Z,-0.10
2018-12-27T00:34:06.573Z,-0.10
2018-12-27T00:36:35.573Z,0.00
2018-12-27T00:39:05.366Z,0.00
2018-12-27T00:41:34.369Z,0.10
2018-12-27T00:44:03.361Z,0.00
2018-12-27T00:46:32.446Z,0.10
2018-12-27T00:49:01.447Z,0.10
2018-12-27T00:51:30.444Z,0.00
2018-12-27T00:53:59.459Z,-0.10
2018-12-27T00:56:28.466Z,-0.10
2018-12-27T00:58:57.465Z,0.00
2018-12-27T01:01:26.489Z,-0.10
2018-12-27T01:03:55.493Z,0.00
2018-12-27T01:06:24.507Z,-0.10
2018-12-27T01:08:53.761Z,-0.10
2018-12-27T01:11:22.766Z,0.00
2018-12-27T01:13:51.766Z,0.00
2018-12-27T01:16:20.785Z,0.00
2018-12-27T01:18:49.797Z,-0.10
2018-12-27T01:21:18.805Z,-0.10
2018-12-27T01:23:47.919Z,-0.30
2018-12-27T01:26:16.926Z,-0.20
2018-12-27T01:28:45.941Z,-0.10
2018-12-27T01:31:14.957Z,0.00
2018-12-27T01:33:43.944Z,0.00
2018-12-27T01:36:12.950Z,-0.10
2018-12-27T01:38:42.276Z,0.00
2018-12-27T01:41:11.286Z,-0.10
2018-12-27T01:43:40.510Z,0.00
2018-12-27T01:46:09.533Z,-0.10
2018-12-27T01:48:38.544Z,-0.10
2018-12-27T01:51:07.536Z,-0.20
2018-12-27T01:53:36.589Z,-0.10
2018-12-27T01:56:05.595Z,-0.10
2018-12-27T01:58:34.592Z,-0.30
2018-12-27T02:01:03.600Z,-0.30
2018-12-27T02:03:32.605Z,-0.20
2018-12-27T02:06:01.607Z,-0.10
2018-12-27T02:08:30.959Z,-0.10
2018-12-27T02:10:59.963Z,-0.10
2018-12-27T02:13:28.966Z,-0.10
2018-12-27T02:15:58.228Z,-0.10
2018-12-27T02:18:27.230Z,-0.10
2018-12-27T02:20:56.228Z,-0.20
2018-12-27T02:23:25.491Z,-0.20
2018-12-27T02:25:54.493Z,-0.20
2018-12-27T02:28:23.499Z,-0.20
2018-12-27T02:30:52.517Z,-0.10
2018-12-27T02:33:21.514Z,-0.10
2018-12-27T02:35:50.509Z,-0.20
2018-12-27T02:38:19.525Z,-0.20
2018-12-27T02:40:48.536Z,-0.30
2018-12-27T02:43:17.530Z,-0.20
2018-12-27T02:45:46.555Z,-0.10
2018-12-27T02:48:15.561Z,-0.10
2018-12-27T02:50:44.563Z,-0.10
2018-12-27T02:53:13.659Z,0.00
2018-12-27T02:55:42.663Z,0.00
2018-12-27T02:58:11.660Z,-0.10
2018-12-27T03:00:40.713Z,-0.20
2018-12-27T03:03:09.714Z,-0.40
2018-12-27T03:05:38.717Z,-0.40
2018-12-27T03:08:07.752Z,-0.30
2018-12-27T03:10:36.761Z,-0.20
2018-12-27T03:13:05.760Z,-0.20
2018-12-27T03:15:34.800Z,-0.20
2018-12-27T03:18:03.805Z,-0.30
2018-12-27T03:20:32.849Z,-0.10
2018-12-27T03:23:01.876Z,-0.20
2018-12-27T03:25:30.867Z,-0.30
2018-12-27T03:27:59.862Z,-0.30
2018-12-27T03:30:28.963Z,-0.30
2018-12-27T03:32:58.083Z,-0.40
2018-12-27T03:35:27.138Z,-0.40
2018-12-27T03:37:56.189Z,-0.40
2018-12-27T03:40:25.427Z,-0.40
2018-12-27T03:42:54.417Z,-0.60
2018-12-27T03:45:23.434Z,-0.60
2018-12-27T03:47:52.440Z,-0.60
2018-12-27T03:50:21.455Z,-0.60
2018-12-27T03:52:50.718Z,-0.50
2018-12-27T03:55:19.717Z,-0.60
2018-12-27T03:57:48.726Z,-0.50
2018-12-27T04:00:17.777Z,-0.50
2018-12-27T04:02:46.781Z,-0.50
2018-12-27T04:05:15.825Z,-0.40
2018-12-27T04:07:44.984Z,-0.40
2018-12-27T04:10:14.078Z,-0.40
2018-12-27T04:12:43.143Z,-0.50
2018-12-27T04:15:12.206Z,-0.40
2018-12-27T04:17:41.150Z,-0.40
2018-12-27T04:20:10.150Z,-0.40
2018-12-27T04:22:39.269Z,-0.50
2018-12-27T04:25:08.383Z,-0.50
2018-12-27T04:27:37.334Z,-0.50
2018-12-27T04:30:06.267Z,-0.60
2018-12-27T04:32:35.985Z,-0.70
2018-12-27T04:35:05.214Z,-0.70
2018-12-27T04:37:34.253Z,-0.60
2018-12-27T04:40:03.278Z,-0.60
2018-12-27T04:42:32.871Z,-0.60
2018-12-27T04:45:01.821Z,-0.40
2018-12-27T04:47:30.843Z,-0.40
2018-12-27T04:49:59.778Z,-0.30
2018-12-27T04:52:28.838Z,-0.30
2018-12-27T04:54:57.774Z,-0.30
2018-12-27T04:57:26.751Z,-0.30
2018-12-27T04:59:55.778Z,-0.40
2018-12-27T05:02:24.719Z,-0.50
2018-12-27T05:04:53.707Z,-0.50
2018-12-27T05:07:22.721Z,-0.50
2018-12-27T05:09:51.743Z,-0.60
2018-12-27T05:12:20.782Z,-0.60
2018-12-27T05:14:49.771Z,-0.60
2018-12-27T05:17:18.734Z,-0.70
2018-12-27T05:19:47.593Z,-0.80
2018-12-27T05:22:16.628Z,-0.80
2018-12-27T05:24:45.508Z,-0.90
2018-12-27T05:27:14.402Z,-0.90
2018-12-27T05:29:43.443Z,-0.90
2018-12-27T05:32:12.466Z,-0.90
2018-12-27T05:34:41.429Z,-0.80
2018-12-27T05:37:10.355Z,-0.80
2018-12-27T05:39:39.373Z,-0.80
2018-12-27T05:42:08.306Z,-0.80
2018-12-27T05:44:37.284Z,-0.80
2018-12-27T05:47:06.292Z,-0.80
2018-12-27T05:49:35.146Z,-0.80
2018-12-27T05:52:04.121Z,-0.70
2018-12-27T05:54:32.985Z,-0.70
2018-12-27T05:57:01.939Z,-0.70
2018-12-27T05:59:30.916Z,-0.80
2018-12-27T06:02:01.133Z,-0.80
2018-12-27T06:04:33.922Z,-0.70
2018-12-27T06:07:01.340Z,-0.60
2018-12-27T06:09:30.288Z,-0.60
2018-12-27T06:11:59.229Z,-0.60
2018-12-27T06:14:28.293Z,-0.50
2018-12-27T06:16:57.312Z,-0.50
2018-12-27T06:19:26.254Z,-0.50
2018-12-27T06:21:55.245Z,-0.60
2018-12-27T06:24:25.417Z,-0.50
2018-12-27T06:26:54.366Z,-0.60
2018-12-27T06:29:23.394Z,-0.50
2018-12-27T06:31:52.282Z,-0.50
2018-12-27T06:34:21.231Z,-0.50
2018-12-27T06:36:50.355Z,-0.40
2018-12-27T06:39:19.306Z,-0.40
2018-12-27T06:41:48.351Z,-0.50
2018-12-27T06:44:17.385Z,-0.50
2018-12-27T06:46:46.315Z,-0.50
2018-12-27T06:49:15.297Z,-0.50
2018-12-27T06:51:44.257Z,-0.40
2018-12-27T06:54:13.273Z,-0.40
2018-12-27T06:56:42.289Z,-0.40
2018-12-27T06:59:11.299Z,-0.40
2018-12-27T07:01:40.165Z,-0.40
2018-12-27T07:04:09.133Z,-0.40
2018-12-27T07:06:38.181Z,-0.40
2018-12-27T07:09:08.037Z,-0.30
2018-12-27T07:11:37.045Z,-0.20
2018-12-27T07:14:05.926Z,-0.20
2018-12-27T07:16:34.797Z,-0.20
2018-12-27T07:19:03.762Z,-0.10
2018-12-27T07:21:32.787Z,-0.10
2018-12-27T07:24:07.380Z,0.00
2018-12-27T07:26:36.302Z,-0.10
2018-12-27T07:29:06.222Z,0.00
2018-12-27T07:31:35.727Z,-0.10
2018-12-27T07:34:04.661Z,-0.10
2018-12-27T07:36:33.546Z,0.00
2018-12-27T07:39:04.901Z,-0.10
2018-12-27T07:41:33.925Z,-0.20
2018-12-27T07:44:02.846Z,-0.20
2018-12-27T07:46:31.865Z,-0.30
2018-12-27T07:49:00.758Z,-0.20
2018-12-27T07:51:29.824Z,-0.10
2018-12-27T07:53:58.769Z,-0.20
2018-12-27T07:56:27.742Z,-0.30
2018-12-27T07:58:56.605Z,-0.20
2018-12-27T08:01:25.536Z,-0.40
2018-12-27T08:03:54.669Z,-0.40
2018-12-27T08:06:23.529Z,-0.30
2018-12-27T08:08:52.758Z,-0.30
2018-12-27T08:11:21.677Z,-0.40
2018-12-27T08:13:50.878Z,-0.50
2018-12-27T08:16:19.827Z,-0.50
2018-12-27T08:18:48.715Z,-0.50
2018-12-27T08:21:17.678Z,-0.50
2018-12-27T08:23:46.719Z,-0.60
2018-12-27T08:26:15.607Z,-0.50
2018-12-27T08:28:44.614Z,-0.50
2018-12-27T08:31:13.642Z,-0.40
2018-12-27T08:33:42.583Z,-0.40
2018-12-27T08:36:11.527Z,-0.30
2018-12-27T08:38:40.501Z,-0.30
2018-12-27T08:41:09.476Z,-0.20
2018-12-27T08:43:38.618Z,-0.10
2018-12-27T08:46:07.624Z,0.00
2018-12-27T08:48:36.503Z,0.00
2018-12-27T08:51:05.437Z,-0.10
2018-12-27T08:53:34.373Z,0.00
2018-12-27T08:56:03.493Z,-0.10
2018-12-27T08:58:32.501Z,0.00
2018-12-27T09:01:01.436Z,0.10
2018-12-27T09:03:30.673Z,0.20
2018-12-27T09:05:59.625Z,0.10
2018-12-27T09:08:28.649Z,0.10
2018-12-27T09:10:57.654Z,0.20
2018-12-27T09:13:26.601Z,0.10
2018-12-27T09:15:55.453Z,0.10
2018-12-27T09:18:24.620Z,0.20
2018-12-27T09:20:53.561Z,0.20
2018-12-27T09:23:22.585Z,0.30
2018-12-27T09:25:51.597Z,0.30
2018-12-27T09:28:20.905Z,0.20
2018-12-27T09:30:49.793Z,0.30
2018-12-27T09:33:18.749Z,0.40
2018-12-27T09:35:47.690Z,0.50
2018-12-27T09:38:16.556Z,0.60
2018-12-27T09:40:45.546Z,0.60
2018-12-27T09:43:14.509Z,0.70
2018-12-27T09:45:46.817Z,0.70
2018-12-27T09:48:15.862Z,0.80
2018-12-27T09:50:44.737Z,0.80
2018-12-27T09:53:13.926Z,0.90
2018-12-27T09:55:43.129Z,1.10
2018-12-27T09:58:12.066Z,1.10
2018-12-27T10:00:40.995Z,1.20
2018-12-27T10:03:10.097Z,1.30
2018-12-27T10:05:39.024Z,1.30
2018-12-27T10:08:07.942Z,1.40
2018-12-27T10:10:36.875Z,1.40
2018-12-27T10:13:05.876Z,1.60
2018-12-27T10:15:34.794Z,1.60
2018-12-27T10:18:03.837Z,1.70
2018-12-27T10:20:32.669Z,1.70
2018-12-27T10:23:01.513Z,1.70
2018-12-27T10:25:30.455Z,1.60
2018-12-27T10:27:59.302Z,1.40
2018-12-27T10:30:28.144Z,1.50
2018-12-27T10:32:57.233Z,1.60
2018-12-27T10:35:26.067Z,1.60
2018-12-27T10:37:54.914Z,1.70
2018-12-27T10:40:24.146Z,1.60
2018-12-27T10:42:52.989Z,1.70
2018-12-27T10:45:24.554Z,1.80
2018-12-27T10:47:53.487Z,1.80
2018-12-27T10:50:22.412Z,2.00
2018-12-27T10:52:51.325Z,2.10
2018-12-27T10:55:20.177Z,2.00
2018-12-27T10:57:49.834Z,2.10
2018-12-27T11:00:18.748Z,2.00
2018-12-27T11:02:47.852Z,2.20
2018-12-27T11:05:16.695Z,2.30
2018-12-27T11:07:45.532Z,2.20
2018-12-27T11:10:14.541Z,2.50
2018-12-27T11:12:44.666Z,2.60
2018-12-27T11:15:13.606Z,2.60
2018-12-27T11:17:42.490Z,2.50
2018-12-27T11:20:11.694Z,2.40
2018-12-27T11:22:40.845Z,2.70
2018-12-27T11:25:09.870Z,2.90
2018-12-27T11:27:38.793Z,3.00
2018-12-27T11:30:08.034Z,3.00
2018-12-27T11:32:36.994Z,3.10
2018-12-27T11:35:06.037Z,3.20
2018-12-27T11:37:35.022Z,3.20
2018-12-27T11:40:04.161Z,3.30
2018-12-27T11:42:33.077Z,3.30
2018-12-27T11:45:01.998Z,3.20
2018-12-27T11:47:30.937Z,3.20
2018-12-27T11:49:59.776Z,3.20
2018-12-27T11:52:28.637Z,3.20
2018-12-27T11:54:57.510Z,3.20
2018-12-27T11:57:26.430Z,3.00
2018-12-27T11:59:55.270Z,3.00
2018-12-27T12:02:30.891Z,3.00
2018-12-27T12:04:55.133Z,3.00
2018-12-27T12:07:23.981Z,3.10
2018-12-27T12:09:53.024Z,3.00
2018-12-27T12:12:21.938Z,3.00
2018-12-27T12:14:50.786Z,3.00
2018-12-27T12:17:19.715Z,3.00
2018-12-27T12:19:48.869Z,3.00
2018-12-27T12:22:17.941Z,2.80
2018-12-27T12:24:47.175Z,2.70
2018-12-27T12:27:16.173Z,2.90
2018-12-27T12:29:45.682Z,2.90
2018-12-27T12:32:14.716Z,3.00
2018-12-27T12:34:43.870Z,3.00
2018-12-27T12:37:14.144Z,2.90
2018-12-27T12:39:43.479Z,3.00
2018-12-27T12:42:12.673Z,3.00
2018-12-27T12:44:41.877Z,2.90
2018-12-27T12:47:10.717Z,2.80
2018-12-27T12:49:39.661Z,2.80
2018-12-27T12:52:08.654Z,2.90
2018-12-27T12:54:37.933Z,2.90
2018-12-27T12:57:06.921Z,3.00
2018-12-27T12:59:35.837Z,3.00
2018-12-27T13:02:05.540Z,3.10
2018-12-27T13:04:34.474Z,3.10
2018-12-27T13:07:03.758Z,3.00
2018-12-27T13:09:32.647Z,3.10
2018-12-27T13:12:01.511Z,3.00
2018-12-27T13:14:30.353Z,2.90
2018-12-27T13:16:59.608Z,2.80
2018-12-27T13:19:28.603Z,2.80
2018-12-27T13:21:57.598Z,2.80
2018-12-27T13:24:26.533Z,2.80
2018-12-27T13:26:55.386Z,2.90
2018-12-27T13:29:24.230Z,2.90
2018-12-27T13:31:53.108Z,2.70
2018-12-27T13:34:21.970Z,2.60
2018-12-27T13:36:50.949Z,2.70
2018-12-27T13:39:19.810Z,2.80
2018-12-27T13:41:48.958Z,2.70
2018-12-27T13:44:17.806Z,2.80
2018-12-27T13:46:46.688Z,2.80
2018-12-27T13:49:15.677Z,2.60
2018-12-27T13:51:44.589Z,2.60
2018-12-27T13:54:13.464Z,2.60
2018-12-27T13:56:42.384Z,2.50
2018-12-27T13:59:11.377Z,2.50
2018-12-27T14:01:40.306Z,2.60
2018-12-27T14:04:09.430Z,2.60
2018-12-27T14:06:38.422Z,2.70
2018-12-27T14:09:07.981Z,2.70
2018-12-27T14:11:36.900Z,2.70
2018-12-27T14:14:05.813Z,2.60
2018-12-27T14:16:34.830Z,2.70
2018-12-27T14:19:03.923Z,2.70
2018-12-27T14:21:32.832Z,2.70
2018-12-27T14:24:01.689Z,2.70
2018-12-27T14:26:30.674Z,2.70
2018-12-27T14:29:00.011Z,2.70
2018-12-27T14:31:29.156Z,2.70
2018-12-27T14:33:58.041Z,2.60
2018-12-27T14:36:26.955Z,2.70
2018-12-27T14:38:55.909Z,2.70
2018-12-27T14:41:24.853Z,2.70
2018-12-27T14:43:54.103Z,2.60
2018-12-27T14:46:23.036Z,2.60
2018-12-27T14:48:52.013Z,2.60
2018-12-27T14:51:20.870Z,2.50
2018-12-27T14:53:50.203Z,2.50
2018-12-27T14:56:19.283Z,2.50
2018-12-27T14:58:48.130Z,2.60
2018-12-27T15:01:17.052Z,2.50
2018-12-27T15:03:45.985Z,2.40
2018-12-27T15:06:14.898Z,2.40
2018-12-27T15:08:43.854Z,2.40
2018-12-27T15:11:14.257Z,2.40
2018-12-27T15:13:43.217Z,2.40
2018-12-27T15:16:12.149Z,2.30
2018-12-27T15:18:40.991Z,2.30
2018-12-27T15:21:09.834Z,2.30
2018-12-27T15:23:39.546Z,2.30
2018-12-27T15:26:08.463Z,2.20
2018-12-27T15:28:37.301Z,2.20
2018-12-27T15:31:06.330Z,2.20
2018-12-27T15:33:35.246Z,2.20
2018-12-27T15:36:04.193Z,2.20
2018-12-27T15:38:33.139Z,2.10
2018-12-27T15:41:01.990Z,2.10
2018-12-27T15:43:30.896Z,2.10
2018-12-27T15:46:00.017Z,2.10
2018-12-27T15:48:28.870Z,2.10
2018-12-27T15:50:57.791Z,2.00
2018-12-27T15:53:27.028Z,2.10
2018-12-27T15:55:55.937Z,2.10
2018-12-27T15:58:24.781Z,2.10
2018-12-27T16:00:53.724Z,2.00
2018-12-27T16:03:22.646Z,2.00
2018-12-27T16:05:51.566Z,1.90
2018-12-27T16:08:20.421Z,1.90
2018-12-27T16:10:49.404Z,1.90
2018-12-27T16:13:18.253Z,1.90
2018-12-27T16:15:47.263Z,1.90
2018-12-27T16:18:16.107Z,2.00
2018-12-27T16:20:45.017Z,1.90
2018-12-27T16:23:14.250Z,1.90
2018-12-27T16:25:43.095Z,1.90
2018-12-27T16:28:11.941Z,1.90
2018-12-27T16:30:40.874Z,1.80
2018-12-27T16:33:09.793Z,1.80
2018-12-27T16:35:38.716Z,1.80
2018-12-27T16:38:07.981Z,1.80
2018-12-27T16:40:37.166Z,1.80
2018-12-27T16:43:06.145Z,1.70
2018-12-27T16:45:35.086Z,1.70
2018-12-27T16:48:04.002Z,1.80
2018-12-27T16:50:33.073Z,1.80
2018-12-27T16:53:02.149Z,1.70
2018-12-27T16:55:31.071Z,1.80
2018-12-27T16:58:00.169Z,1.80
2018-12-27T17:00:29.342Z,1.70
2018-12-27T17:02:58.182Z,1.70
2018-12-27T17:05:27.101Z,1.70
2018-12-27T17:07:56.055Z,1.60
2018-12-27T17:10:25.158Z,1.70
2018-12-27T17:12:56.851Z,1.70
2018-12-27T17:15:26.032Z,1.70
2018-12-27T17:17:54.941Z,1.60
2018-12-27T17:20:23.785Z,1.60
2018-12-27T17:22:52.998Z,1.50
2018-12-27T17:25:22.061Z,1.30
2018-12-27T17:27:50.909Z,1.30
2018-12-27T17:30:19.859Z,1.30
2018-12-27T17:32:49.318Z,1.30
2018-12-27T17:35:18.237Z,1.20
2018-12-27T17:37:47.432Z,1.10
2018-12-27T17:40:16.445Z,1.20
2018-12-27T17:42:45.364Z,1.30
2018-12-27T17:45:14.214Z,1.10
2018-12-27T17:47:43.611Z,1.00
2018-12-27T17:50:12.605Z,1.20
2018-12-27T17:52:41.610Z,1.20
2018-12-27T17:55:10.853Z,1.20
2018-12-27T17:57:39.771Z,1.20
2018-12-27T18:00:09.023Z,1.20
2018-12-27T18:02:37.869Z,1.20
2018-12-27T18:05:06.873Z,1.30
2018-12-27T18:07:35.737Z,1.30
2018-12-27T18:10:05.325Z,1.30
2018-12-27T18:12:34.318Z,1.30
2018-12-27T18:15:03.697Z,1.40
2018-12-27T18:17:32.534Z,1.30
2018-12-27T18:20:01.449Z,1.20
2018-12-27T18:22:30.551Z,1.20
2018-12-27T18:24:59.396Z,1.30
2018-12-27T18:27:28.241Z,1.10
2018-12-27T18:29:57.104Z,1.20
2018-12-27T18:32:26.017Z,1.10
2018-12-27T18:34:54.849Z,1.20
2018-12-27T18:37:23.801Z,1.10
2018-12-27T18:39:52.645Z,1.00
2018-12-27T18:42:21.558Z,1.10
2018-12-27T18:44:50.418Z,1.10
2018-12-27T18:47:19.266Z,1.00
2018-12-27T18:49:48.182Z,0.90
2018-12-27T18:52:17.073Z,1.00
2018-12-27T18:54:46.281Z,0.80
2018-12-27T18:57:15.151Z,0.80
2018-12-27T18:59:44.113Z,0.90
2018-12-27T19:02:12.962Z,0.80
2018-12-27T19:04:41.951Z,0.80
2018-12-27T19:07:11.121Z,0.80
2018-12-27T19:09:40.038Z,0.80
2018-12-27T19:12:44.986Z,0.80
2018-12-27T19:15:17.597Z,0.80
2018-12-27T19:17:52.474Z,0.80
2018-12-27T19:20:21.318Z,0.70
2018-12-27T19:23:11.458Z,0.70
2018-12-27T19:25:40.606Z,0.70
2018-12-27T19:28:09.449Z,0.60
2018-12-27T19:30:38.385Z,0.70
2018-12-27T19:33:07.297Z,0.80
2018-12-27T19:35:36.299Z,0.70
2018-12-27T19:38:05.465Z,0.80
2018-12-27T19:40:34.391Z,0.80
2018-12-27T19:43:03.464Z,0.70
2018-12-27T19:45:32.484Z,0.70
2018-12-27T19:48:01.820Z,0.50
2018-12-27T19:50:30.985Z,0.40
2018-12-27T19:53:01.133Z,0.40
2018-12-27T19:55:30.045Z,0.30
2018-12-27T19:57:59.227Z,0.20
2018-12-27T20:00:28.203Z,0.20
2018-12-27T20:02:57.181Z,0.20
2018-12-27T20:05:26.437Z,0.40
2018-12-27T20:07:59.354Z,0.20
2018-12-27T20:10:26.219Z,0.20
2018-12-27T20:12:55.360Z,0.30
2018-12-27T20:15:24.461Z,0.20
2018-12-27T20:17:54.481Z,0.10
2018-12-27T20:20:23.401Z,0.10
2018-12-27T20:22:52.585Z,0.10
2018-12-27T20:25:21.510Z,0.10
2018-12-27T20:27:50.441Z,0.30
2018-12-27T20:30:19.669Z,0.30
2018-12-27T20:32:48.589Z,0.20
2018-12-27T20:35:17.583Z,0.20
2018-12-27T20:37:46.477Z,0.10
2018-12-27T20:40:15.416Z,0.10
2018-12-27T20:42:44.274Z,0.20
2018-12-27T20:45:13.557Z,0.30
2018-12-27T20:47:42.500Z,0.30
2018-12-27T20:50:11.490Z,0.30
2018-12-27T20:52:40.353Z,0.20
2018-12-27T20:55:09.383Z,0.20
2018-12-27T20:57:38.601Z,0.30
2018-12-27T21:00:08.030Z,0.20
2018-12-27T21:02:37.089Z,0.20
2018-12-27T21:05:06.088Z,0.30
2018-12-27T21:07:35.232Z,0.30
2018-12-27T21:10:04.233Z,0.30
2018-12-27T21:12:33.157Z,0.30
2018-12-27T21:15:02.042Z,0.40
2018-12-27T21:17:30.973Z,0.50
2018-12-27T21:19:59.914Z,0.50
2018-12-27T21:22:29.217Z,0.40
2018-12-27T21:24:58.333Z,0.40
2018-12-27T21:27:27.185Z,0.50
2018-12-27T21:29:56.189Z,0.40
2018-12-27T21:32:25.190Z,0.40
2018-12-27T21:34:54.189Z,0.30
2018-12-27T21:37:23.427Z,0.40
2018-12-27T21:39:52.644Z,0.40
2018-12-27T21:42:21.698Z,0.30
2018-12-27T21:44:51.209Z,0.40
2018-12-27T21:47:20.221Z,0.40
2018-12-27T21:49:49.849Z,0.50
2018-12-27T21:52:18.794Z,0.40
2018-12-27T21:54:47.640Z,0.30
2018-12-27T21:57:16.482Z,0.40
2018-12-27T21:59:45.723Z,0.40
2018-12-27T22:02:16.079Z,0.30
2018-12-27T22:04:44.992Z,0.30
2018-12-27T22:07:14.270Z,0.50
2018-12-27T22:09:43.166Z,0.50
2018-12-27T22:12:12.082Z,0.50
2018-12-27T22:14:41.138Z,0.40
2018-12-27T22:17:10.696Z,0.40
2018-12-27T22:19:39.686Z,0.40
2018-12-27T22:22:08.588Z,0.40
2018-12-27T22:24:37.544Z,0.10
2018-12-27T22:27:06.701Z,0.10
2018-12-27T22:29:35.658Z,0.10
2018-12-27T22:32:04.664Z,0.10
2018-12-27T22:34:33.546Z,0.10
2018-12-27T22:37:02.520Z,0.10
2018-12-27T22:39:31.374Z,0.20
2018-12-27T22:42:00.305Z,0.20
2018-12-27T22:44:29.390Z,0.30
2018-12-27T22:46:58.241Z,0.20
2018-12-27T22:49:27.089Z,0.10
2018-12-27T22:51:56.110Z,0.00
2018-12-27T22:54:24.963Z,0.00
2018-12-27T22:56:54.137Z,0.10
2018-12-27T22:59:23.252Z,0.00
2018-12-27T23:01:52.393Z,0.10
2018-12-27T23:04:21.317Z,0.00
2018-12-27T23:06:50.431Z,-0.10
2018-12-27T23:09:19.634Z,-0.20
2018-12-27T23:11:48.487Z,-0.20
2018-12-27T23:14:17.538Z,-0.20
2018-12-27T23:16:46.465Z,-0.20
2018-12-27T23:19:15.396Z,-0.10
2018-12-27T23:21:44.408Z,0.00
2018-12-27T23:24:15.042Z,0.00
2018-12-27T23:26:43.983Z,0.00
2018-12-27T23:29:12.990Z,-0.10
2018-12-27T23:31:42.018Z,-0.30
2018-12-27T23:34:11.026Z,-0.40
2018-12-27T23:36:39.953Z,-0.50
2018-12-27T23:39:09.010Z,-0.40
2018-12-27T23:41:38.005Z,-0.40
2018-12-27T23:44:06.925Z,-0.50
2018-12-27T23:46:35.949Z,-0.60
2018-12-27T23:49:04.985Z,-0.50
2018-12-27T23:51:33.937Z,-0.60
2018-12-27T23:54:02.880Z,-0.60
2018-12-27T23:56:31.854Z,-0.60
2018-12-27T23:59:00.773Z,-0.50
